Amsterdam, MO (64723)

5:04 AM CST on February 08, 2016 (GMT -0600)
Cass County | | Change Station
CLOSE
Current Station
Personal Weather Station
Location: Drexel, MO
Elevation: 951 ft
Nearby Weather Stations
Active Advisory: Wind Advisory

Elev 951 ft 38.50 °N, 94.51 °W | Updated 42 seconds ago

Overcast
Overcast
35.0 °F
Feels Like 28 °F
N
9.0
Wind Variable Wind from West
Gusts 25.0 mph

Today
High -- | Low -- °F
--% Chance of Precip.
Yesterday
High -- | Low -- °F
Precip. -- in
Pressure 30.00 in
Visibility 10.0 miles
Clouds Scattered Clouds 5500 ft
Overcast 6500 ft
Windchill 28 °F
Dew Point 22 °F
Humidity 59%
Rainfall 0.00 in
Snow Depth Not available.
7:17 AM 5:48 PM
Waning Crescent, 0% visible
METAR KOJC 081053Z AUTO 33014G26KT 10SM SCT055 OVC065 01/M07 A2999 RMK AO2 PK WND 32032/1034 SLP159 T00111072
Pressure 30.00 in
Visibility 10.0 miles
Clouds Scattered Clouds 5500 ft
Overcast 6500 ft
Windchill 28 °F
Dew Point 22 °F
Humidity 59%
Rainfall 0.00 in
Snow Depth Not available.
7:17 AM 5:48 PM
Waning Crescent, 0% visible
METAR KOJC 081053Z AUTO 33014G26KT 10SM SCT055 OVC065 01/M07 A2999 RMK AO2 PK WND 32032/1034 SLP159 T00111072

10-Day Weather Forecast

Almanac

Astronomy

Feb. 08, 2016 Rise Set
Actual Time
Civil Twilight
Nautical Twilight
Astronomical Twilight
Moon
Length of Visible Light
Length of Day
Tomorrow will be .
, % of the Moon is Illuminated

Today's Extremes

State Highs State Lows

Community

WunderPhotos

Upload Photos

1,891,420 photos uploaded!

WunderBlog® & News

Nearby

Air Quality

  Air Quality AQ Index Pollutant
Not available.

Snow Depth

Station Depth Elevation

Earthquake Activity

City Distance Mag. Time & Date
Minimum magnitude displayed is 2.5.

Coastal Water Temperatures

Place Temperature

Stations

Nearby Weather Stations

Station Location Temp. Windchill Dew Point Humidity Wind Precip. Elev Updated Type
                   

Watches & Warnings

Wind Advisory
Issued: 4:50 AM CST Feb. 8, 2016 – National Weather Service

... Wind Advisory remains in effect from 8 am this morning to 6 PM
CST this evening...

* timing... through this evening.

* Winds... sustained winds around 30 to 35 mph with gusts in excess
of 45 mph are expected.

* Impacts... strong Crosswinds on highways could make travel
difficult... particularly for high profile vehicles. In
addition... light snow this morning combined with strong winds may
periodically reduce visibilities.

Precautionary/preparedness actions...

A Wind Advisory means that winds of 35 mph are expected. Winds
this strong can make driving difficult... especially for high
profile vehicles. Use extra caution.